createdAt,value
2022-11-21T00:00:03.612Z,94291.63
2022-11-21T00:02:50.619Z,94293.13
2022-11-21T00:05:23.693Z,94299.75
2022-11-21T00:08:10.627Z,94295.50
2022-11-21T00:10:52.630Z,94287.22
2022-11-21T00:13:46.728Z,94281.34
2022-11-21T00:16:40.620Z,94293.00
2022-11-21T00:19:27.621Z,94297.25
2022-11-21T00:22:00.775Z,94300.66
2022-11-21T00:24:51.689Z,94297.34
2022-11-21T00:27:26.762Z,94294.94
2022-11-21T00:30:15.638Z,94294.84
2022-11-21T00:32:48.731Z,94297.22
2022-11-21T00:35:35.694Z,94298.63
2022-11-21T00:38:08.720Z,94304.34
2022-11-21T00:41:02.662Z,94304.28
2022-11-21T00:43:56.643Z,94296.00
2022-11-21T00:46:43.609Z,94301.00
2022-11-21T00:49:16.721Z,94302.59
2022-11-21T00:52:03.692Z,94301.72
2022-11-21T00:54:36.769Z,94303.38
2022-11-21T00:57:23.626Z,94291.56
2022-11-21T01:00:03.700Z,94294.00
2022-11-21T01:02:57.635Z,94290.59
2022-11-21T01:05:44.639Z,94289.00
2022-11-21T01:08:24.644Z,94293.09
2022-11-21T01:11:19.696Z,94297.25
2022-11-21T01:14:07.698Z,94297.13
2022-11-21T01:16:43.613Z,94285.44
2022-11-21T01:19:30.681Z,94288.78
2022-11-21T01:22:03.720Z,94287.16
2022-11-21T01:24:50.632Z,94278.88
2022-11-21T01:27:23.738Z,94274.72
2022-11-21T01:30:10.662Z,94275.66
2022-11-21T01:32:50.730Z,94276.38
2022-11-21T01:35:37.699Z,94278.03
2022-11-21T01:38:17.689Z,94274.78
2022-11-21T01:41:11.696Z,94289.78
2022-11-21T01:43:58.638Z,94294.66
2022-11-21T01:46:32.781Z,94298.75
2022-11-21T01:49:31.696Z,94291.16
2022-11-21T01:52:35.887Z,94291.03
2022-11-21T01:55:22.672Z,94279.38
2022-11-21T01:58:02.653Z,94275.28
2022-11-21T02:01:00.732Z,94278.56
2022-11-21T02:03:49.633Z,94268.56
2022-11-21T02:06:22.776Z,94262.72
2022-11-21T02:09:10.656Z,94261.94
2022-11-21T02:11:52.770Z,94262.78
2022-11-21T02:14:40.663Z,94260.41
2022-11-21T02:17:15.730Z,94261.34
2022-11-21T02:20:04.710Z,94260.59
2022-11-21T02:22:51.838Z,94265.63
2022-11-21T02:25:42.657Z,94260.53
2022-11-21T02:28:20.778Z,94253.69
2022-11-21T02:31:07.696Z,94247.81
2022-11-21T02:33:47.698Z,94245.19
2022-11-21T02:36:48.656Z,94249.28
2022-11-21T02:39:36.764Z,94242.47
2022-11-21T02:42:27.701Z,94231.59
2022-11-21T02:45:17.697Z,94230.81
2022-11-21T02:48:04.760Z,94227.50
2022-11-21T02:50:43.443Z,94229.09
2022-11-21T02:53:29.699Z,94232.38
2022-11-21T02:56:02.875Z,94235.75
2022-11-21T02:58:49.698Z,94226.59
2022-11-21T03:01:29.745Z,94228.31
2022-11-21T03:04:23.700Z,94233.97
2022-11-21T03:07:10.764Z,94227.03
2022-11-21T03:09:43.784Z,94235.28
2022-11-21T03:12:30.726Z,94234.56
2022-11-21T03:15:03.790Z,94228.03
2022-11-21T03:17:50.720Z,94233.88
2022-11-21T03:20:23.843Z,94237.09
2022-11-21T03:23:10.713Z,94237.00
2022-11-21T03:25:43.865Z,94236.75
2022-11-21T03:28:30.708Z,94228.50
2022-11-21T03:31:03.780Z,94213.53
2022-11-21T03:33:50.710Z,94220.13
2022-11-21T03:36:24.075Z,94215.13
2022-11-21T03:39:10.719Z,94208.41
2022-11-21T03:41:43.773Z,94208.31
2022-11-21T03:44:30.710Z,94204.91
2022-11-21T03:47:03.776Z,94195.75
2022-11-21T03:49:50.721Z,94199.16
2022-11-21T03:52:23.785Z,94209.31
2022-11-21T03:55:11.686Z,94210.16
2022-11-21T03:57:45.861Z,94197.66
2022-11-21T04:00:34.712Z,94197.69
2022-11-21T04:03:10.802Z,94201.03
2022-11-21T04:05:57.746Z,94205.09
2022-11-21T04:08:30.801Z,94203.38
2022-11-21T04:11:17.742Z,94210.81
2022-11-21T04:13:50.887Z,94219.13
2022-11-21T04:16:37.741Z,94219.13
2022-11-21T04:19:17.734Z,94216.56
2022-11-21T04:22:04.721Z,94216.44
2022-11-21T04:24:44.715Z,94222.25
2022-11-21T04:27:31.713Z,94219.78
2022-11-21T04:30:11.744Z,94226.50
2022-11-21T04:33:06.714Z,94215.72
2022-11-21T04:36:00.711Z,94215.78
2022-11-21T04:38:47.735Z,94209.16
2022-11-21T04:41:20.806Z,94207.53
2022-11-21T04:44:07.781Z,94205.09
2022-11-21T04:46:40.808Z,94208.47
2022-11-21T04:49:27.748Z,94198.56
2022-11-21T04:52:00.805Z,94192.75
2022-11-21T04:54:47.784Z,94191.91
2022-11-21T04:57:20.804Z,94189.59
2022-11-21T05:00:07.805Z,94184.72
2022-11-21T05:02:40.848Z,94180.53
2022-11-21T05:05:27.754Z,94188.81
2022-11-21T05:08:07.744Z,94184.66
2022-11-21T05:11:19.754Z,94178.81
2022-11-21T05:14:13.738Z,94175.44
2022-11-21T05:17:07.747Z,94178.81
2022-11-21T05:20:03.755Z,94181.19
2022-11-21T05:22:52.736Z,94167.84
2022-11-21T05:25:25.829Z,94163.50
2022-11-21T05:28:12.727Z,94153.41
2022-11-21T05:30:52.714Z,94160.88
2022-11-21T05:33:46.816Z,94164.16
2022-11-21T05:36:33.736Z,94169.09
2022-11-21T05:39:06.906Z,94171.41
2022-11-21T05:42:02.555Z,94161.44
2022-11-21T05:44:35.841Z,94156.41
2022-11-21T05:47:22.739Z,94154.84
2022-11-21T05:49:55.830Z,94154.84
2022-11-21T05:52:42.748Z,94152.34
2022-11-21T05:55:15.837Z,94157.38
2022-11-21T05:58:06.738Z,94158.13
2022-11-21T06:00:39.833Z,94162.19
2022-11-21T06:03:34.724Z,94159.78
2022-11-21T06:06:25.067Z,94162.38
2022-11-21T06:09:18.728Z,94156.69
2022-11-21T06:12:05.741Z,94157.69
2022-11-21T06:14:45.800Z,94158.56
2022-11-21T06:17:39.743Z,94157.03
2022-11-21T06:20:28.741Z,94166.34
2022-11-21T06:23:08.730Z,94157.31
2022-11-21T06:26:02.759Z,94157.41
2022-11-21T06:28:50.814Z,94155.88
2022-11-21T06:31:44.729Z,94162.69
2022-11-21T06:34:33.790Z,94163.69
2022-11-21T06:37:13.791Z,94161.34
2022-11-21T06:40:07.801Z,94174.78
2022-11-21T06:43:01.788Z,94166.50
2022-11-21T06:45:48.752Z,94177.38
2022-11-21T06:48:21.883Z,94166.59
2022-11-21T06:51:27.795Z,94173.28
2022-11-21T06:54:04.910Z,94172.44
2022-11-21T06:56:51.802Z,94180.00
2022-11-21T06:59:24.850Z,94175.88
2022-11-21T07:02:11.818Z,94175.09
2022-11-21T07:04:51.819Z,94170.97
2022-11-21T07:07:50.757Z,94164.34
2022-11-21T07:10:37.816Z,94158.44
2022-11-21T07:13:23.096Z,94159.25
2022-11-21T07:16:14.740Z,94154.31
2022-11-21T07:18:48.917Z,94161.00
2022-11-21T07:21:35.798Z,94152.81
2022-11-21T07:24:08.922Z,94154.63
2022-11-21T07:26:55.784Z,94148.88
2022-11-21T07:29:29.294Z,94153.09
2022-11-21T07:32:16.754Z,94157.34
2022-11-21T07:34:49.887Z,94159.09
2022-11-21T07:37:37.890Z,94161.69
2022-11-21T07:40:11.904Z,94156.81
2022-11-21T07:43:10.605Z,94160.13
2022-11-21T07:45:57.795Z,94160.28
2022-11-21T07:48:30.859Z,94159.53
2022-11-21T07:51:17.867Z,94159.59
2022-11-21T07:53:50.859Z,94163.84
2022-11-21T07:56:37.786Z,94162.25
2022-11-21T07:59:10.867Z,94158.13
2022-11-21T08:01:58.896Z,94154.97
2022-11-21T08:04:31.889Z,94152.59
2022-11-21T08:07:18.828Z,94147.69
2022-11-21T08:09:52.912Z,94148.66
2022-11-21T08:12:39.782Z,94143.75
2022-11-21T08:15:12.911Z,94139.72
2022-11-21T08:17:59.788Z,94144.00
2022-11-21T08:20:32.857Z,94135.75
2022-11-21T08:23:19.782Z,94129.94
2022-11-21T08:25:59.793Z,94140.06
2022-11-21T08:28:59.638Z,94141.88
2022-11-21T08:31:47.792Z,94145.44
2022-11-21T08:34:20.925Z,94140.56
2022-11-21T08:37:08.811Z,94139.09
2022-11-21T08:39:41.873Z,94136.75
2022-11-21T08:42:35.889Z,94136.03
2022-11-21T08:45:22.819Z,94141.19
2022-11-21T08:47:55.935Z,94142.97
2022-11-21T08:50:42.816Z,94149.81
2022-11-21T08:53:22.816Z,94143.31
2022-11-21T08:56:09.845Z,94147.63
2022-11-21T08:58:49.798Z,94141.94
2022-11-21T09:01:36.851Z,94145.44
2022-11-21T09:04:13.248Z,94148.09
2022-11-21T09:06:59.864Z,94142.38
2022-11-21T09:09:33.939Z,94139.22
2022-11-21T09:12:20.815Z,94144.25
2022-11-21T09:15:12.581Z,94144.34
2022-11-21T09:18:10.813Z,94136.91
2022-11-21T09:20:49.977Z,94126.97
2022-11-21T09:23:36.822Z,94129.47
2022-11-21T09:26:09.896Z,94123.59
2022-11-21T09:28:56.816Z,94118.66
2022-11-21T09:31:29.948Z,94120.38
2022-11-21T09:34:16.863Z,94114.56
2022-11-21T09:36:56.941Z,94107.94
2022-11-21T09:39:36.823Z,94102.97
2022-11-21T09:42:39.904Z,94103.00
2022-11-21T09:45:35.844Z,94096.38
2022-11-21T09:48:20.002Z,94092.25
2022-11-21T09:51:13.849Z,94087.25
2022-11-21T09:54:08.907Z,94083.94
2022-11-21T09:56:55.875Z,94082.31
2022-11-21T09:59:40.976Z,94074.81
2022-11-21T10:02:30.825Z,94072.34
2022-11-21T10:05:03.910Z,94071.53
2022-11-21T10:07:52.001Z,94064.88
2022-11-21T10:10:33.927Z,94066.56
2022-11-21T10:13:34.859Z,94059.91
2022-11-21T10:16:21.943Z,94066.63
2022-11-21T10:19:31.836Z,94059.94
2022-11-21T10:22:29.893Z,94056.63
2022-11-21T10:25:28.886Z,94049.94
2022-11-21T10:28:25.869Z,94046.59
2022-11-21T10:31:07.880Z,94045.81
2022-11-21T10:34:04.044Z,94042.47
2022-11-21T10:36:54.865Z,94039.97
2022-11-21T10:39:30.915Z,94044.19
2022-11-21T10:42:36.864Z,94034.16
2022-11-21T10:45:30.966Z,94045.06
2022-11-21T10:48:17.860Z,94030.81
2022-11-21T10:51:06.196Z,94044.25
2022-11-21T10:54:10.865Z,94035.03
2022-11-21T10:56:43.947Z,94032.56
2022-11-21T10:59:33.856Z,94032.56
2022-11-21T11:02:25.865Z,94033.41
2022-11-21T11:05:29.868Z,94034.25
2022-11-21T11:08:18.865Z,94030.06
2022-11-21T11:11:07.108Z,94030.06
2022-11-21T11:14:04.588Z,94024.22
2022-11-21T11:16:48.864Z,94025.91
2022-11-21T11:19:43.058Z,94020.03
2022-11-21T11:22:36.861Z,94013.34
2022-11-21T11:25:17.938Z,94016.69
2022-11-21T11:28:19.860Z,94014.19
2022-11-21T11:31:13.888Z,94010.00
2022-11-21T11:34:09.859Z,94015.88
2022-11-21T11:37:39.877Z,94010.00
2022-11-21T11:40:43.868Z,94007.53
2022-11-21T11:44:13.860Z,94002.47
2022-11-21T11:47:39.858Z,94009.19
2022-11-21T11:50:38.872Z,94000.81
2022-11-21T11:53:33.897Z,93992.41
2022-11-21T11:56:24.865Z,93998.31
2022-11-21T11:59:42.872Z,93992.44
2022-11-21T12:02:31.979Z,93989.09
2022-11-21T12:05:37.876Z,93978.19
2022-11-21T12:08:41.821Z,93981.53
2022-11-21T12:11:56.859Z,93977.34
2022-11-21T12:15:36.860Z,93969.81
2022-11-21T12:18:26.868Z,93968.13
2022-11-21T12:21:29.861Z,93971.47
2022-11-21T12:24:27.857Z,93973.16
2022-11-21T12:27:30.862Z,93966.44
2022-11-21T12:30:45.247Z,93956.34
2022-11-21T12:33:38.867Z,93963.91
2022-11-21T12:36:49.892Z,93954.69
2022-11-21T12:39:55.960Z,93958.88
2022-11-21T12:43:41.891Z,93947.13
2022-11-21T12:46:41.867Z,93947.13
2022-11-21T12:50:18.951Z,93947.13
2022-11-21T12:53:42.965Z,93950.47
2022-11-21T12:56:51.883Z,93944.59
2022-11-21T12:59:59.165Z,93942.91
2022-11-21T13:02:51.877Z,93946.28
2022-11-21T13:05:42.924Z,93942.06
2022-11-21T13:08:39.187Z,93942.03
2022-11-21T13:12:00.935Z,93943.72
2022-11-21T13:14:59.857Z,93947.06
2022-11-21T13:17:34.704Z,93943.69
2022-11-21T13:20:34.914Z,93941.19
2022-11-21T13:23:15.886Z,93936.16
2022-11-21T13:26:04.915Z,93940.34
2022-11-21T13:28:41.021Z,93937.81
2022-11-21T13:31:35.873Z,93935.31
2022-11-21T13:34:10.957Z,93947.06
2022-11-21T13:36:57.880Z,93949.56
2022-11-21T13:39:39.117Z,93942.03
2022-11-21T13:46:37.885Z,93949.56
2022-11-21T13:49:29.133Z,93943.69
2022-11-21T13:52:43.884Z,93937.81
2022-11-21T13:56:09.882Z,93934.47
2022-11-21T13:59:43.177Z,93937.84
2022-11-21T14:02:29.958Z,93933.63
2022-11-21T14:05:11.961Z,93937.84
2022-11-21T14:07:59.006Z,93938.66
2022-11-21T14:10:33.907Z,93931.09
2022-11-21T14:13:34.918Z,93938.69
2022-11-21T14:16:27.910Z,93936.16
2022-11-21T14:19:28.222Z,93943.72
2022-11-21T14:22:50.902Z,93945.41
2022-11-21T14:25:27.097Z,93939.53
2022-11-21T14:28:28.931Z,93954.69
2022-11-21T14:31:03.033Z,93947.09
2022-11-21T14:33:50.920Z,93948.78
2022-11-21T14:36:30.922Z,93953.81
2022-11-21T14:39:37.740Z,93938.69
2022-11-21T14:42:32.928Z,93947.94
2022-11-21T14:45:32.917Z,93956.34
2022-11-21T14:48:20.074Z,93955.50
2022-11-21T14:50:52.971Z,93957.19
2022-11-21T14:53:39.914Z,93957.19
2022-11-21T14:56:22.948Z,93954.66
2022-11-21T14:59:24.934Z,93952.16
2022-11-21T15:02:10.924Z,93949.63
2022-11-21T15:05:05.894Z,93960.56
2022-11-21T15:08:16.767Z,93963.09
2022-11-21T15:10:47.976Z,93962.22
2022-11-21T15:14:06.745Z,93962.22
2022-11-21T15:16:33.990Z,93970.66
2022-11-21T15:19:29.397Z,93969.81
2022-11-21T15:22:05.050Z,93975.69
2022-11-21T15:24:51.897Z,93970.66
2022-11-21T15:27:34.060Z,93972.31
2022-11-21T15:30:20.921Z,93970.66
2022-11-21T15:33:20.088Z,93968.13
2022-11-21T15:36:18.913Z,93979.88
2022-11-21T15:39:13.945Z,93968.13
2022-11-21T15:42:00.959Z,93976.53
2022-11-21T15:44:33.990Z,93985.78
2022-11-21T15:47:20.925Z,93975.69
2022-11-21T15:50:00.975Z,93979.88
2022-11-21T15:52:54.929Z,93974.00
2022-11-21T15:55:39.926Z,93982.41
2022-11-21T15:58:26.944Z,93982.41
2022-11-21T16:01:00.439Z,93974.00
2022-11-21T16:03:46.953Z,93979.88
2022-11-21T16:06:20.035Z,93976.53
2022-11-21T16:09:07.926Z,93979.03
2022-11-21T16:11:49.024Z,93969.78
2022-11-21T16:14:28.929Z,93971.47
2022-11-21T16:17:09.051Z,93973.16
2022-11-21T16:19:49.564Z,93968.13
2022-11-21T16:22:29.991Z,93968.94
2022-11-21T16:25:09.946Z,93969.81
2022-11-21T16:27:50.008Z,93964.75
2022-11-21T16:30:29.929Z,93970.66
2022-11-21T16:33:10.009Z,93968.97
2022-11-21T16:35:49.931Z,93977.34
2022-11-21T16:38:34.999Z,93973.16
2022-11-21T16:41:16.943Z,93979.06
2022-11-21T16:44:03.999Z,93974.00
2022-11-21T16:46:43.950Z,93974.84
2022-11-21T16:49:38.938Z,93967.28
2022-11-21T16:52:25.999Z,93973.16
2022-11-21T16:54:59.023Z,93968.94
2022-11-21T16:57:45.955Z,93972.31
2022-11-21T17:00:19.053Z,93969.78
2022-11-21T17:03:05.948Z,93963.09
2022-11-21T17:05:42.118Z,93963.09
2022-11-21T17:08:28.982Z,93962.25
2022-11-21T17:11:02.025Z,93965.59
2022-11-21T17:13:49.958Z,93973.16
2022-11-21T17:16:25.064Z,93976.53
2022-11-21T17:19:11.939Z,93977.38
2022-11-21T17:21:45.020Z,93971.47
2022-11-21T17:24:32.062Z,93974.84
2022-11-21T17:27:11.966Z,93971.50
2022-11-21T17:30:05.955Z,93973.16
2022-11-21T17:32:59.967Z,93971.47
2022-11-21T17:35:53.964Z,93984.91
2022-11-21T17:38:41.029Z,93973.97
2022-11-21T17:41:18.038Z,93977.34
2022-11-21T17:44:12.974Z,93976.53
2022-11-21T17:47:24.989Z,93978.19
2022-11-21T17:50:18.972Z,93988.28
2022-11-21T17:53:05.964Z,93990.78
2022-11-21T17:55:39.056Z,93990.78
2022-11-21T17:58:25.963Z,93991.63
2022-11-21T18:01:11.131Z,93994.97
2022-11-21T18:04:13.581Z,93996.66
2022-11-21T18:06:48.250Z,94001.72
2022-11-21T18:09:35.014Z,93999.19
2022-11-21T18:12:15.044Z,93996.66
2022-11-21T18:15:10.073Z,93998.31
2022-11-21T18:17:57.996Z,93992.47
2022-11-21T18:20:31.086Z,94008.41
2022-11-21T18:23:18.062Z,94009.25
2022-11-21T18:25:51.176Z,94006.75
2022-11-21T18:28:39.019Z,94003.38
2022-11-21T18:31:19.063Z,94006.72
2022-11-21T18:34:07.972Z,94011.78
2022-11-21T18:36:41.134Z,94010.94
2022-11-21T18:39:30.206Z,94012.59
2022-11-21T18:42:10.993Z,94012.59
2022-11-21T18:45:04.997Z,94010.94
2022-11-21T18:47:53.051Z,94010.06
2022-11-21T18:50:26.068Z,94015.13
2022-11-21T18:53:12.969Z,94015.97
2022-11-21T18:55:52.989Z,94020.19
2022-11-21T18:58:47.992Z,94019.31
2022-11-21T19:01:36.263Z,94020.19
2022-11-21T19:04:17.021Z,94022.72
2022-11-21T19:07:11.059Z,94020.19
2022-11-21T19:10:14.765Z,94016.81
2022-11-21T19:12:51.055Z,94013.47
2022-11-21T19:15:38.992Z,94021.84
2022-11-21T19:18:13.074Z,94019.34
2022-11-21T19:21:00.006Z,94024.38
2022-11-21T19:23:33.151Z,94015.13
2022-11-21T19:26:21.995Z,94025.22
2022-11-21T19:28:56.094Z,94027.72
2022-11-21T19:31:45.950Z,94025.22
2022-11-21T19:34:23.171Z,94024.38
2022-11-21T19:37:10.002Z,94024.38
2022-11-21T19:39:43.096Z,94030.25
2022-11-21T19:42:30.018Z,94028.56
2022-11-21T19:45:28.051Z,94028.53
2022-11-21T19:48:15.013Z,94035.25
2022-11-21T19:50:52.792Z,94028.53
2022-11-21T19:53:45.031Z,94029.38
2022-11-21T19:56:24.196Z,94026.88
2022-11-21T19:59:12.057Z,94025.19
2022-11-21T20:01:51.028Z,94017.63
2022-11-21T20:04:39.007Z,94025.16
2022-11-21T20:07:12.133Z,94026.81
2022-11-21T20:09:59.044Z,94025.97
2022-11-21T20:12:32.126Z,94036.91
2022-11-21T20:15:19.040Z,94034.34
2022-11-21T20:17:56.126Z,94029.31
2022-11-21T20:20:43.037Z,94021.75
2022-11-21T20:23:16.086Z,94025.97
2022-11-21T20:26:03.073Z,94027.63
2022-11-21T20:28:36.177Z,94036.84
2022-11-21T20:31:25.003Z,94030.97
2022-11-21T20:34:00.829Z,94038.50
2022-11-21T20:36:48.019Z,94035.16
2022-11-21T20:39:31.692Z,94038.50
2022-11-21T20:42:18.016Z,94042.72
2022-11-21T20:46:01.019Z,94045.22
2022-11-21T20:47:58.005Z,94037.66
2022-11-21T20:51:25.174Z,94035.16
2022-11-21T20:53:51.512Z,94037.66
2022-11-21T20:56:34.023Z,94041.88
2022-11-21T20:59:21.041Z,94046.91
2022-11-21T21:02:01.070Z,94051.09
2022-11-21T21:04:48.040Z,94048.56
2022-11-21T21:07:28.103Z,94050.28
2022-11-21T21:10:22.015Z,94051.09
2022-11-21T21:13:09.032Z,94053.63
2022-11-21T21:15:42.101Z,94052.81
2022-11-21T21:18:29.040Z,94051.13
2022-11-21T21:21:22.098Z,94047.78
2022-11-21T21:24:12.066Z,94046.94
2022-11-21T21:26:52.180Z,94054.47
2022-11-21T21:29:39.050Z,94053.66
2022-11-21T21:32:12.137Z,94047.78
2022-11-21T21:34:59.028Z,94052.81
2022-11-21T21:37:32.127Z,94052.81
2022-11-21T21:40:19.055Z,94056.16
2022-11-21T21:42:52.106Z,94055.34
2022-11-21T21:45:39.055Z,94067.06
2022-11-21T21:48:19.027Z,94059.53
2022-11-21T21:51:18.063Z,94059.53
2022-11-21T21:54:06.054Z,94057.88
2022-11-21T21:56:46.055Z,94057.84
2022-11-21T21:59:40.056Z,94060.38
2022-11-21T22:02:27.037Z,94053.66
2022-11-21T22:05:00.123Z,94062.94
2022-11-21T22:07:47.101Z,94057.03
2022-11-21T22:10:20.146Z,94066.28
2022-11-21T22:13:07.059Z,94061.22
2022-11-21T22:15:40.120Z,94072.16
2022-11-21T22:18:27.057Z,94066.28
2022-11-21T22:21:00.132Z,94068.78
2022-11-21T22:24:09.755Z,94065.44
2022-11-21T22:26:40.153Z,94063.75
2022-11-21T22:29:27.076Z,94063.75
2022-11-21T22:32:00.145Z,94058.72
2022-11-21T22:34:47.033Z,94060.41
2022-11-21T22:37:20.128Z,94069.63
2022-11-21T22:40:07.062Z,94068.78
2022-11-21T22:42:40.159Z,94067.94
2022-11-21T22:45:27.063Z,94067.94
2022-11-21T22:48:00.135Z,94077.19
2022-11-21T22:50:51.082Z,94077.19
2022-11-21T22:53:24.130Z,94077.19
2022-11-21T22:56:14.068Z,94078.00
2022-11-21T22:58:47.171Z,94073.84
2022-11-21T23:01:34.156Z,94081.38
2022-11-21T23:04:17.690Z,94067.97
2022-11-21T23:07:12.130Z,94074.66
2022-11-21T23:09:59.092Z,94076.38
2022-11-21T23:12:32.158Z,94075.50
2022-11-21T23:15:19.095Z,94070.47
2022-11-21T23:17:52.739Z,94072.16
2022-11-21T23:20:39.076Z,94072.16
2022-11-21T23:23:12.198Z,94073.00
2022-11-21T23:25:59.084Z,94072.16
2022-11-21T23:28:32.167Z,94061.25
2022-11-21T23:31:19.071Z,94061.25
2022-11-21T23:33:52.155Z,94057.06
2022-11-21T23:36:39.070Z,94052.84
2022-11-21T23:39:12.222Z,94049.47
2022-11-21T23:41:59.094Z,94046.94
2022-11-21T23:44:39.088Z,94041.09
2022-11-21T23:47:33.124Z,94039.41
2022-11-21T23:50:28.124Z,94034.38
2022-11-21T23:53:16.087Z,94036.88
2022-11-21T23:55:50.160Z,94027.66
2022-11-21T23:58:37.113Z,94016.72
